Time,TemperatureF,DewpointF,PressureIn,WindDirection,WindDirectionDegrees,WindSpeedMPH,WindSpeedGustMPH,Humidity,HourlyPrecipIn,Conditions,Clouds,dailyrainin,SolarRadiationWatts/m^2,SoftwareType,DateUTC
2013-06-03 00:03:00,77.0,72.0,-100.00,ESE,105,3.0,7.0,86,0.00,,,0.10,0.000000,,2013-06-03 04:03:00,
2013-06-03 00:23:00,77.0,73.0,-100.00,SE,146,1.0,7.0,88,0.00,,,0.10,0.000000,,2013-06-03 04:23:00,
2013-06-03 00:33:00,77.0,73.0,-100.00,SE,146,1.0,7.0,88,0.00,,,0.10,0.000000,,2013-06-03 04:33:00,
2013-06-03 00:42:00,77.0,73.0,-100.00,SE,146,1.0,7.0,88,0.00,,,0.10,0.000000,,2013-06-03 04:42:00,
2013-06-03 00:53:00,77.0,73.0,-100.00,SE,146,1.0,7.0,88,0.00,,,0.10,0.000000,,2013-06-03 04:53:00,
2013-06-03 01:02:00,77.0,73.0,-100.00,SE,146,1.0,7.0,88,0.00,,,0.10,0.000000,,2013-06-03 05:02:00,
2013-06-03 01:22:00,76.0,73.0,-100.00,SE,127,1.0,4.0,90,0.00,,,0.10,0.000000,,2013-06-03 05:22:00,
2013-06-03 01:32:00,76.0,73.0,-100.00,SE,127,1.0,4.0,90,0.00,,,0.10,0.000000,,2013-06-03 05:32:00,
2013-06-03 01:43:00,76.0,73.0,-100.00,SE,127,1.0,4.0,90,0.00,,,0.10,0.000000,,2013-06-03 05:43:00,
2013-06-03 01:52:00,76.0,73.0,-100.00,SE,127,1.0,4.0,90,0.00,,,0.10,0.000000,,2013-06-03 05:52:00,
2013-06-03 02:02:00,76.0,73.0,-100.00,SE,127,1.0,4.0,90,0.00,,,0.10,0.000000,,2013-06-03 06:02:00,
2013-06-03 02:22:00,76.0,74.0,-100.00,East,92,1.0,3.0,93,0.00,,,0.10,0.000000,,2013-06-03 06:22:00,
2013-06-03 02:32:00,76.0,74.0,-100.00,East,92,1.0,3.0,93,0.00,,,0.10,0.000000,,2013-06-03 06:32:00,
2013-06-03 02:42:00,76.0,74.0,-100.00,East,92,1.0,3.0,93,0.00,,,0.10,0.000000,,2013-06-03 06:42:00,
2013-06-03 02:53:00,76.0,74.0,-100.00,East,92,1.0,3.0,93,0.00,,,0.10,0.000000,,2013-06-03 06:53:00,
2013-06-03 03:02:00,76.0,74.0,-100.00,East,92,1.0,3.0,93,0.00,,,0.10,0.000000,,2013-06-03 07:02:00,
2013-06-03 03:22:00,74.0,72.0,-100.00,West,266,0.0,3.0,93,0.00,,,0.10,0.000000,,2013-06-03 07:22:00,
2013-06-03 03:32:00,74.0,72.0,-100.00,West,266,0.0,3.0,93,0.00,,,0.10,0.000000,,2013-06-03 07:32:00,
2013-06-03 03:42:00,74.0,72.0,-100.00,West,266,0.0,3.0,93,0.00,,,0.10,0.000000,,2013-06-03 07:42:00,
2013-06-03 03:52:00,74.0,72.0,-100.00,West,266,0.0,3.0,93,0.00,,,0.10,0.000000,,2013-06-03 07:52:00,
2013-06-03 04:02:00,74.0,72.0,-100.00,West,266,0.0,3.0,93,0.00,,,0.10,0.000000,,2013-06-03 08:02:00,
2013-06-03 04:22:00,74.0,72.0,-100.00,WSW,248,1.0,2.0,95,0.00,,,0.10,0.000000,,2013-06-03 08:22:00,
2013-06-03 04:32:00,74.0,72.0,-100.00,WSW,248,1.0,2.0,95,0.00,,,0.10,0.000000,,2013-06-03 08:32:00,
2013-06-03 04:42:00,74.0,72.0,-100.00,WSW,248,1.0,2.0,95,0.00,,,0.10,0.000000,,2013-06-03 08:42:00,
2013-06-03 04:52:00,74.0,72.0,-100.00,WSW,248,1.0,2.0,95,0.00,,,0.10,0.000000,,2013-06-03 08:52:00,
2013-06-03 05:02:00,74.0,72.0,-100.00,WSW,248,1.0,2.0,95,0.00,,,0.10,0.000000,,2013-06-03 09:02:00,
2013-06-03 05:22:00,74.0,72.0,-100.00,SE,138,0.0,2.0,95,0.00,,,0.10,0.000000,,2013-06-03 09:22:00,
2013-06-03 05:33:00,74.0,72.0,-100.00,SE,138,0.0,2.0,95,0.00,,,0.10,0.000000,,2013-06-03 09:33:00,
2013-06-03 05:43:00,74.0,72.0,-100.00,SE,138,0.0,2.0,95,0.00,,,0.10,0.000000,,2013-06-03 09:43:00,
2013-06-03 05:53:00,74.0,72.0,-100.00,SE,138,0.0,2.0,95,0.00,,,0.10,0.000000,,2013-06-03 09:53:00,
2013-06-03 06:03:00,74.0,72.0,-100.00,SE,138,0.0,2.0,95,0.00,,,0.10,0.000000,,2013-06-03 10:03:00,
2013-06-03 06:22:00,73.0,71.0,-100.00,West,261,0.0,0.0,95,0.00,,,0.10,0.000000,,2013-06-03 10:22:00,
2013-06-03 06:33:00,73.0,71.0,-100.00,West,261,0.0,0.0,95,0.00,,,0.10,0.000000,,2013-06-03 10:33:00,
2013-06-03 06:42:00,73.0,71.0,-100.00,West,261,0.0,0.0,95,0.00,,,0.10,0.000000,,2013-06-03 10:42:00,
2013-06-03 06:53:00,73.0,71.0,-100.00,West,261,0.0,0.0,95,0.00,,,0.10,0.000000,,2013-06-03 10:53:00,
2013-06-03 07:02:00,73.0,71.0,-100.00,West,261,0.0,0.0,95,0.00,,,0.10,0.000000,,2013-06-03 11:02:00,
2013-06-03 07:22:00,72.0,70.0,-100.00,WSW,240,0.0,0.0,95,0.00,,,0.10,7.000000,,2013-06-03 11:22:00,
2013-06-03 07:32:00,72.0,70.0,-100.00,WSW,240,0.0,0.0,95,0.00,,,0.10,7.000000,,2013-06-03 11:32:00,
2013-06-03 07:42:00,72.0,70.0,-100.00,WSW,240,0.0,0.0,95,0.00,,,0.10,7.000000,,2013-06-03 11:42:00,
2013-06-03 07:52:00,72.0,70.0,-100.00,WSW,240,0.0,0.0,95,0.00,,,0.10,7.000000,,2013-06-03 11:52:00,
2013-06-03 08:02:00,72.0,70.0,-100.00,WSW,240,0.0,0.0,95,0.00,,,0.10,7.000000,,2013-06-03 12:02:00,
2013-06-03 08:22:00,76.0,74.0,-100.00,WSW,257,2.0,5.0,93,0.00,,,0.10,94.000000,,2013-06-03 12:22:00,
2013-06-03 08:32:00,76.0,74.0,-100.00,WSW,257,2.0,5.0,93,0.00,,,0.10,94.000000,,2013-06-03 12:32:00,
2013-06-03 08:42:00,76.0,74.0,-100.00,WSW,257,2.0,5.0,93,0.00,,,0.10,94.000000,,2013-06-03 12:42:00,
2013-06-03 08:52:00,76.0,74.0,-100.00,WSW,257,2.0,5.0,93,0.00,,,0.10,94.000000,,2013-06-03 12:52:00,
2013-06-03 09:02:00,76.0,74.0,-100.00,WSW,257,2.0,5.0,93,0.00,,,0.10,94.000000,,2013-06-03 13:02:00,
2013-06-03 09:22:00,81.0,73.0,-100.00,WSW,258,3.0,7.0,78,0.00,,,0.10,338.000000,,2013-06-03 13:22:00,
2013-06-03 09:33:00,81.0,73.0,-100.00,WSW,258,3.0,7.0,78,0.00,,,0.10,338.000000,,2013-06-03 13:33:00,
2013-06-03 09:43:00,81.0,73.0,-100.00,WSW,258,3.0,7.0,78,0.00,,,0.10,338.000000,,2013-06-03 13:43:00,
2013-06-03 09:53:00,81.0,73.0,-100.00,WSW,258,3.0,7.0,78,0.00,,,0.10,338.000000,,2013-06-03 13:53:00,
2013-06-03 10:02:00,81.0,73.0,-100.00,WSW,258,3.0,7.0,78,0.00,,,0.10,338.000000,,2013-06-03 14:02:00,
2013-06-03 10:22:00,85.0,74.0,-100.00,SSW,205,3.0,7.0,69,0.00,,,0.07,528.000000,,2013-06-03 14:22:00,
2013-06-03 10:33:00,85.0,74.0,-100.00,SSW,205,3.0,7.0,69,0.00,,,0.07,528.000000,,2013-06-03 14:33:00,
2013-06-03 10:42:00,85.0,74.0,-100.00,SSW,205,3.0,7.0,69,0.00,,,0.07,528.000000,,2013-06-03 14:42:00,
2013-06-03 10:52:00,85.0,74.0,-100.00,SSW,205,3.0,7.0,69,0.00,,,0.07,528.000000,,2013-06-03 14:52:00,
2013-06-03 11:02:00,85.0,74.0,-100.00,SSW,205,3.0,7.0,69,0.00,,,0.07,528.000000,,2013-06-03 15:02:00,
2013-06-03 11:22:00,87.0,70.0,-100.00,WNW,295,5.0,9.0,58,0.00,,,0.01,740.000000,,2013-06-03 15:22:00,
2013-06-03 11:33:00,87.0,70.0,-100.00,WNW,295,5.0,9.0,58,0.00,,,0.01,740.000000,,2013-06-03 15:33:00,
2013-06-03 11:43:00,87.0,70.0,-100.00,WNW,295,5.0,9.0,58,0.00,,,0.01,740.000000,,2013-06-03 15:43:00,
2013-06-03 11:53:00,87.0,70.0,-100.00,WNW,295,5.0,9.0,58,0.00,,,0.01,740.000000,,2013-06-03 15:53:00,
2013-06-03 12:03:00,87.0,70.0,-100.00,WNW,295,5.0,9.0,58,0.00,,,0.01,740.000000,,2013-06-03 16:03:00,
2013-06-03 12:23:00,90.0,71.0,-100.00,West,273,5.0,10.0,53,0.00,,,0.01,853.000000,,2013-06-03 16:23:00,
2013-06-03 12:33:00,90.0,71.0,-100.00,West,273,5.0,10.0,53,0.00,,,0.01,853.000000,,2013-06-03 16:33:00,
2013-06-03 12:42:00,90.0,71.0,-100.00,West,273,5.0,10.0,53,0.00,,,0.01,853.000000,,2013-06-03 16:42:00,
2013-06-03 12:53:00,90.0,71.0,-100.00,West,273,5.0,10.0,53,0.00,,,0.01,853.000000,,2013-06-03 16:53:00,
2013-06-03 13:02:00,90.0,71.0,-100.00,West,273,5.0,10.0,53,0.00,,,0.01,853.000000,,2013-06-03 17:02:00,
2013-06-03 13:22:00,91.0,70.0,-100.00,WNW,299,5.0,11.0,50,0.00,,,0.01,939.000000,,2013-06-03 17:22:00,
2013-06-03 13:33:00,91.0,70.0,-100.00,WNW,299,5.0,11.0,50,0.00,,,0.01,939.000000,,2013-06-03 17:33:00,
2013-06-03 13:42:00,91.0,70.0,-100.00,WNW,299,5.0,11.0,50,0.00,,,0.01,939.000000,,2013-06-03 17:42:00,
2013-06-03 13:52:00,91.0,70.0,-100.00,WNW,299,5.0,11.0,50,0.00,,,0.01,939.000000,,2013-06-03 17:52:00,
2013-06-03 14:02:00,91.0,70.0,-100.00,WNW,299,5.0,11.0,50,0.00,,,0.01,939.000000,,2013-06-03 18:02:00,
2013-06-03 14:22:00,93.0,73.0,-100.00,West,261,5.0,11.0,52,0.00,,,-99.99,722.000000,,2013-06-03 18:22:00,
2013-06-03 14:32:00,93.0,73.0,-100.00,West,261,5.0,11.0,52,0.00,,,-99.99,722.000000,,2013-06-03 18:32:00,
2013-06-03 14:43:00,93.0,73.0,-100.00,West,261,5.0,11.0,52,0.00,,,-99.99,722.000000,,2013-06-03 18:43:00,
2013-06-03 14:53:00,93.0,73.0,-100.00,West,261,5.0,11.0,52,0.00,,,-99.99,722.000000,,2013-06-03 18:53:00,
2013-06-03 15:03:00,93.0,73.0,-100.00,West,261,5.0,11.0,52,0.00,,,-99.99,722.000000,,2013-06-03 19:03:00,
2013-06-03 15:23:00,92.0,73.0,-100.00,WNW,293,3.0,11.0,54,0.00,,,0.00,605.000000,,2013-06-03 19:23:00,
2013-06-03 15:33:00,92.0,73.0,-100.00,WNW,293,3.0,11.0,54,0.00,,,0.00,605.000000,,2013-06-03 19:33:00,
2013-06-03 15:42:00,92.0,73.0,-100.00,WNW,293,3.0,11.0,54,0.00,,,0.00,605.000000,,2013-06-03 19:42:00,
2013-06-03 15:53:00,92.0,73.0,-100.00,WNW,293,3.0,11.0,54,0.00,,,0.00,605.000000,,2013-06-03 19:53:00,
2013-06-03 16:02:00,92.0,73.0,-100.00,WNW,293,3.0,11.0,54,0.00,,,0.00,605.000000,,2013-06-03 20:02:00,
2013-06-03 16:22:00,87.0,70.0,-100.00,West,279,4.0,11.0,57,0.00,,,0.00,306.000000,,2013-06-03 20:22:00,
2013-06-03 16:33:00,87.0,70.0,-100.00,West,279,4.0,11.0,57,0.00,,,0.00,306.000000,,2013-06-03 20:33:00,
2013-06-03 16:43:00,87.0,70.0,-100.00,West,279,4.0,11.0,57,0.00,,,0.00,306.000000,,2013-06-03 20:43:00,
2013-06-03 16:52:00,87.0,70.0,-100.00,West,279,4.0,11.0,57,0.00,,,0.00,306.000000,,2013-06-03 20:52:00,
2013-06-03 17:02:00,87.0,70.0,-100.00,West,279,4.0,11.0,57,0.00,,,0.00,306.000000,,2013-06-03 21:02:00,
2013-06-03 17:33:00,84.0,75.0,-100.00,South,169,2.0,8.0,74,0.00,,,0.00,166.000000,,2013-06-03 21:33:00,
2013-06-03 17:43:00,84.0,75.0,-100.00,South,169,2.0,8.0,74,0.00,,,0.00,166.000000,,2013-06-03 21:43:00,
2013-06-03 17:53:00,84.0,75.0,-100.00,South,169,2.0,8.0,74,0.00,,,0.00,166.000000,,2013-06-03 21:53:00,
2013-06-03 18:03:00,84.0,75.0,-100.00,South,169,2.0,8.0,74,0.00,,,0.00,166.000000,,2013-06-03 22:03:00,
2013-06-03 18:23:00,81.0,74.0,-100.00,ESE,118,3.0,10.0,79,0.00,,,0.00,81.000000,,2013-06-03 22:23:00,
2013-06-03 18:33:00,81.0,74.0,-100.00,ESE,118,3.0,10.0,79,0.00,,,0.00,81.000000,,2013-06-03 22:33:00,
2013-06-03 18:42:00,81.0,74.0,-100.00,ESE,118,3.0,10.0,79,0.00,,,0.00,81.000000,,2013-06-03 22:42:00,
2013-06-03 18:53:00,81.0,74.0,-100.00,ESE,118,3.0,10.0,79,0.00,,,0.00,81.000000,,2013-06-03 22:53:00,
2013-06-03 19:02:00,81.0,74.0,-100.00,ESE,118,3.0,10.0,79,0.00,,,0.00,81.000000,,2013-06-03 23:02:00,
2013-06-03 19:23:00,80.0,74.0,-100.00,SE,124,4.0,12.0,82,0.00,,,0.00,71.000000,,2013-06-03 23:23:00,
2013-06-03 19:32:00,80.0,74.0,-100.00,SE,124,4.0,12.0,82,0.00,,,0.00,71.000000,,2013-06-03 23:32:00,
2013-06-03 19:42:00,80.0,74.0,-100.00,SE,124,4.0,12.0,82,0.00,,,0.00,71.000000,,2013-06-03 23:42:00,
2013-06-03 19:52:00,80.0,74.0,-100.00,SE,124,4.0,12.0,82,0.00,,,0.00,71.000000,,2013-06-03 23:52:00,
2013-06-03 20:02:00,80.0,74.0,-100.00,SE,124,4.0,12.0,82,0.00,,,0.00,71.000000,,2013-06-04 00:02:00,
2013-06-03 20:22:00,78.0,72.0,-100.00,WSW,254,1.0,7.0,82,0.00,,,0.00,18.000000,,2013-06-04 00:22:00,
2013-06-03 20:32:00,78.0,72.0,-100.00,WSW,254,1.0,7.0,82,0.00,,,0.00,18.000000,,2013-06-04 00:32:00,
2013-06-03 20:42:00,78.0,72.0,-100.00,WSW,254,1.0,7.0,82,0.00,,,0.00,18.000000,,2013-06-04 00:42:00,
2013-06-03 20:52:00,78.0,72.0,-100.00,WSW,254,1.0,7.0,82,0.00,,,0.00,18.000000,,2013-06-04 00:52:00,
2013-06-03 21:02:00,78.0,72.0,-100.00,WSW,254,1.0,7.0,82,0.00,,,0.00,18.000000,,2013-06-04 01:02:00,
2013-06-03 21:22:00,74.0,72.0,-100.00,North,9,2.0,4.0,92,0.04,,,0.04,3.000000,,2013-06-04 01:22:00,
2013-06-03 21:32:00,74.0,72.0,-100.00,North,9,2.0,4.0,92,0.04,,,0.04,3.000000,,2013-06-04 01:32:00,
2013-06-03 21:42:00,74.0,72.0,-100.00,North,9,2.0,4.0,92,0.04,,,0.04,3.000000,,2013-06-04 01:42:00,
2013-06-03 21:53:00,74.0,72.0,-100.00,North,9,2.0,4.0,92,0.04,,,0.04,3.000000,,2013-06-04 01:53:00,
2013-06-03 22:02:00,74.0,72.0,-100.00,North,9,2.0,4.0,92,0.04,,,0.04,3.000000,,2013-06-04 02:02:00,
2013-06-03 22:22:00,73.0,71.0,-100.00,ENE,75,1.0,3.0,94,0.00,,,0.04,0.000000,,2013-06-04 02:22:00,
2013-06-03 22:32:00,73.0,71.0,-100.00,ENE,75,1.0,3.0,94,0.00,,,0.04,0.000000,,2013-06-04 02:32:00,
2013-06-03 22:42:00,73.0,71.0,-100.00,ENE,75,1.0,3.0,94,0.00,,,0.04,0.000000,,2013-06-04 02:42:00,
2013-06-03 22:52:00,73.0,71.0,-100.00,ENE,75,1.0,3.0,94,0.00,,,0.04,0.000000,,2013-06-04 02:52:00,
2013-06-03 23:02:00,73.0,71.0,-100.00,ENE,75,1.0,3.0,94,0.00,,,0.04,0.000000,,2013-06-04 03:02:00,
2013-06-03 23:22:00,72.0,70.0,-100.00,SSE,155,2.0,3.0,95,0.00,,,0.04,0.000000,,2013-06-04 03:22:00,
2013-06-03 23:33:00,72.0,70.0,-100.00,SSE,155,2.0,3.0,95,0.00,,,0.04,0.000000,,2013-06-04 03:33:00,
2013-06-03 23:43:00,72.0,70.0,-100.00,SSE,155,2.0,3.0,95,0.00,,,0.04,0.000000,,2013-06-04 03:43:00,
2013-06-03 23:54:00,72.0,70.0,-100.00,SSE,155,2.0,3.0,95,0.00,,,0.04,0.000000,,2013-06-04 03:54:00,